createdAt,value
2017-08-18T03:31:54.006Z,63.20
2017-08-18T03:34:21.660Z,63.00
2017-08-18T03:36:49.328Z,63.30
2017-08-18T03:39:17.059Z,63.10
2017-08-18T03:41:44.713Z,62.90
2017-08-18T03:44:12.350Z,63.60
2017-08-18T03:46:40.029Z,62.50
2017-08-18T03:49:07.677Z,62.40
2017-08-18T03:51:35.746Z,62.40
2017-08-18T03:54:03.372Z,62.40
2017-08-18T03:56:31.014Z,62.50
2017-08-18T03:58:58.681Z,62.90
2017-08-18T04:01:26.338Z,63.30
2017-08-18T04:03:54.023Z,63.40
2017-08-18T04:06:21.668Z,63.10
2017-08-18T04:08:49.351Z,62.70
2017-08-18T04:11:17.758Z,64.10
2017-08-18T04:13:45.480Z,63.30
2017-08-18T04:16:13.109Z,63.50
2017-08-18T04:18:41.135Z,63.50
2017-08-18T04:21:09.542Z,63.90
2017-08-18T04:23:37.187Z,63.80
2017-08-18T04:26:05.617Z,64.30
2017-08-18T04:28:33.243Z,64.10
2017-08-18T04:31:00.912Z,64.00
2017-08-18T04:33:28.578Z,63.40
2017-08-18T04:35:56.629Z,63.20
2017-08-18T04:38:24.279Z,63.40
2017-08-18T04:40:52.757Z,63.40
2017-08-18T04:43:21.194Z,63.20
2017-08-18T04:45:48.852Z,63.10
2017-08-18T04:48:16.642Z,63.10
2017-08-18T04:50:44.282Z,63.10
2017-08-18T04:53:11.952Z,63.30
2017-08-18T04:55:39.608Z,63.30
2017-08-18T04:58:07.606Z,63.20
2017-08-18T05:01:12.925Z,63.10
2017-08-18T05:03:41.020Z,64.00
2017-08-18T05:06:08.678Z,64.30
2017-08-18T05:08:36.345Z,64.30
2017-08-18T05:11:04.040Z,64.20
2017-08-18T05:13:31.696Z,64.00
2017-08-18T05:15:59.385Z,64.00
2017-08-18T05:18:27.052Z,63.80
2017-08-18T05:20:55.091Z,63.60
2017-08-18T05:23:22.734Z,63.30
2017-08-18T05:25:50.448Z,62.50
2017-08-18T05:28:18.293Z,62.30
2017-08-18T05:30:45.959Z,62.30
2017-08-18T05:33:13.649Z,63.00
2017-08-18T05:35:41.301Z,63.20
2017-08-18T05:38:08.970Z,63.60
2017-08-18T05:40:36.633Z,63.80
2017-08-18T05:43:04.658Z,63.80
2017-08-18T05:45:33.082Z,63.40
2017-08-18T05:48:00.740Z,63.40
2017-08-18T05:50:28.424Z,63.30
2017-08-18T05:52:56.089Z,63.30
2017-08-18T05:55:24.082Z,63.40
2017-08-18T05:57:52.576Z,62.50
2017-08-18T06:00:20.231Z,62.40
2017-08-18T06:02:49.009Z,60.80
2017-08-18T06:05:16.637Z,60.80
2017-08-18T06:07:44.283Z,61.30
2017-08-18T06:10:12.265Z,62.00
2017-08-18T06:12:39.892Z,62.30
2017-08-18T06:15:07.554Z,61.90
2017-08-18T06:17:35.601Z,62.20
2017-08-18T06:20:03.236Z,61.90
2017-08-18T06:22:30.879Z,61.00
2017-08-18T06:24:58.579Z,59.70
2017-08-18T06:27:27.007Z,58.00
2017-08-18T06:29:55.044Z,58.00
2017-08-18T06:32:23.459Z,57.90
2017-08-18T06:34:51.095Z,57.90
2017-08-18T06:37:19.162Z,58.20
2017-08-18T06:39:46.795Z,58.20
2017-08-18T06:42:14.446Z,57.80
2017-08-18T06:44:42.449Z,57.30
2017-08-18T06:47:10.849Z,57.10
2017-08-18T06:49:38.504Z,57.10
2017-08-18T06:52:06.553Z,56.30
2017-08-18T06:54:35.113Z,55.40
2017-08-18T06:57:02.772Z,55.30
2017-08-18T06:59:30.778Z,55.50
2017-08-18T07:01:59.184Z,57.00
2017-08-18T07:04:26.820Z,57.00
2017-08-18T07:06:55.621Z,57.10
2017-08-18T07:09:23.256Z,57.10
2017-08-18T07:11:50.904Z,56.10
2017-08-18T07:14:18.957Z,55.80
2017-08-18T07:16:46.609Z,54.50
2017-08-18T07:19:14.288Z,54.70
2017-08-18T07:21:42.465Z,54.70
2017-08-18T07:24:10.099Z,53.00
2017-08-18T07:26:37.772Z,52.60
2017-08-18T07:29:05.801Z,52.50
2017-08-18T07:31:33.454Z,51.80
2017-08-18T07:34:01.892Z,53.00
2017-08-18T07:36:29.911Z,53.00
2017-08-18T07:38:57.547Z,52.40
2017-08-18T07:41:25.195Z,51.70
2017-08-18T07:43:53.288Z,51.60
2017-08-18T07:46:21.811Z,52.20
2017-08-18T07:48:49.451Z,52.20
2017-08-18T07:51:17.218Z,52.60
2017-08-18T07:53:44.885Z,51.10
2017-08-18T07:56:12.673Z,51.40
2017-08-18T07:58:40.352Z,50.80
2017-08-18T08:01:08.042Z,50.50
2017-08-18T08:03:36.459Z,51.80
2017-08-18T08:06:04.454Z,51.10
2017-08-18T08:08:32.300Z,50.10
2017-08-18T08:10:59.973Z,51.60
2017-08-18T08:13:27.687Z,50.70
2017-08-18T08:15:55.379Z,50.00
2017-08-18T08:18:23.169Z,49.80
2017-08-18T08:20:50.810Z,49.40
2017-08-18T08:23:18.580Z,49.00
2017-08-18T08:25:46.257Z,49.50
2017-08-18T08:28:13.920Z,49.10
2017-08-18T08:30:41.611Z,48.90
2017-08-18T08:33:09.304Z,48.10
2017-08-18T08:35:36.987Z,47.90
2017-08-18T08:38:04.654Z,49.60
2017-08-18T08:40:32.357Z,48.50
2017-08-18T08:43:00.012Z,48.00
2017-08-18T08:45:28.053Z,45.40
2017-08-18T08:47:55.701Z,44.50
2017-08-18T08:50:23.329Z,44.70
2017-08-18T08:52:51.741Z,43.90
2017-08-18T08:55:19.397Z,43.50
2017-08-18T08:57:47.073Z,42.60
2017-08-18T09:00:14.788Z,42.60
2017-08-18T09:02:42.500Z,41.60
2017-08-18T09:07:44.429Z,40.10
2017-08-18T09:10:12.162Z,38.80
2017-08-18T09:12:40.082Z,39.10
2017-08-18T09:15:08.515Z,39.70
2017-08-18T09:17:36.186Z,39.60
2017-08-18T09:20:03.879Z,37.40
2017-08-18T09:22:32.415Z,37.60
2017-08-18T09:25:00.071Z,37.60
2017-08-18T09:27:27.833Z,35.40
2017-08-18T09:29:55.520Z,33.40
2017-08-18T09:32:23.172Z,31.40
2017-08-18T09:34:50.840Z,29.60
2017-08-18T09:37:18.828Z,29.40
2017-08-18T09:39:46.491Z,27.80
2017-08-18T09:42:14.408Z,28.00
2017-08-18T09:44:42.550Z,28.20
2017-08-18T09:47:10.239Z,28.70
2017-08-18T09:49:50.067Z,27.70
2017-08-18T09:55:26.556Z,27.50
2017-08-18T09:58:20.730Z,24.70
2017-08-18T10:00:49.533Z,26.20
2017-08-18T10:03:17.187Z,26.20
2017-08-18T10:05:44.833Z,28.40
2017-08-18T10:08:12.923Z,29.50
2017-08-18T10:10:40.598Z,31.10
2017-08-18T10:13:08.393Z,28.70
2017-08-18T10:15:36.419Z,26.60
2017-08-18T10:18:04.940Z,24.20
2017-08-18T10:20:32.576Z,24.10
2017-08-18T10:23:00.561Z,23.00
2017-08-18T10:25:28.229Z,23.50
2017-08-18T10:27:55.895Z,24.00
2017-08-18T10:30:23.932Z,25.10
2017-08-18T10:32:51.582Z,26.30
2017-08-18T10:35:19.984Z,29.90
2017-08-18T10:37:48.020Z,30.40
2017-08-18T10:40:15.734Z,31.90
2017-08-18T10:42:43.393Z,31.60
2017-08-18T10:45:11.416Z,31.80
2017-08-18T10:47:39.062Z,32.80
2017-08-18T10:50:06.719Z,34.40
2017-08-18T10:52:34.759Z,34.00
2017-08-18T10:55:02.465Z,34.20
2017-08-18T10:57:30.120Z,35.50
2017-08-18T10:59:58.184Z,35.60
2017-08-18T11:02:25.841Z,36.20
2017-08-18T11:04:53.526Z,37.10
2017-08-18T11:07:22.430Z,34.90
2017-08-18T11:09:50.946Z,32.50
2017-08-18T11:12:18.665Z,32.50
2017-08-18T11:14:47.512Z,28.20
2017-08-18T11:17:15.212Z,28.60
2017-08-18T11:19:42.879Z,29.40
2017-08-18T11:22:11.670Z,23.10
2017-08-18T11:24:39.319Z,23.50
2017-08-18T11:27:06.977Z,21.50
2017-08-18T11:29:34.913Z,20.80
2017-08-18T11:32:02.564Z,21.30
2017-08-18T11:34:30.224Z,24.00
2017-08-18T11:36:58.090Z,24.50
2017-08-18T11:39:25.768Z,22.00
2017-08-18T11:41:53.638Z,22.60
2017-08-18T11:44:21.556Z,21.70
2017-08-18T11:46:49.982Z,21.60
2017-08-18T11:49:17.644Z,21.60
2017-08-18T11:51:45.690Z,22.40
2017-08-18T11:54:13.336Z,23.20
2017-08-18T11:56:40.995Z,24.50
2017-08-18T11:59:09.806Z,28.50
2017-08-18T12:01:37.474Z,28.40
2017-08-18T12:04:05.136Z,27.50
2017-08-18T12:06:33.201Z,28.50
2017-08-18T12:09:00.829Z,26.90
2017-08-18T12:11:28.480Z,27.60
2017-08-18T12:13:56.472Z,27.60
2017-08-18T12:16:24.864Z,29.90
2017-08-18T12:18:52.532Z,29.80
2017-08-18T12:21:20.172Z,30.50
2017-08-18T12:23:47.813Z,32.00
2017-08-18T12:26:15.458Z,32.00
2017-08-18T12:28:43.107Z,31.10
2017-08-18T12:31:10.828Z,30.80
2017-08-18T12:33:38.529Z,31.90
2017-08-18T12:36:06.554Z,32.70
2017-08-18T12:38:35.001Z,33.50
2017-08-18T12:41:02.691Z,33.50
2017-08-18T12:43:31.136Z,33.60
2017-08-18T12:45:58.779Z,33.60
2017-08-18T12:48:26.500Z,33.40
2017-08-18T12:50:54.937Z,33.10
2017-08-18T12:53:23.052Z,33.10
2017-08-18T12:55:51.471Z,32.90
2017-08-18T12:58:19.134Z,32.90
2017-08-18T13:00:46.969Z,33.00
2017-08-18T13:03:17.079Z,34.50
2017-08-18T13:05:45.301Z,34.50
2017-08-18T13:08:13.049Z,36.20
2017-08-18T13:10:40.742Z,37.40
2017-08-18T13:13:08.386Z,34.60
2017-08-18T13:15:36.437Z,35.40
2017-08-18T13:18:04.149Z,34.20
2017-08-18T13:20:32.135Z,33.80
2017-08-18T13:22:59.861Z,34.40
2017-08-18T13:25:27.533Z,35.30
2017-08-18T13:27:55.240Z,35.10
2017-08-18T13:30:23.685Z,35.20
2017-08-18T13:32:51.331Z,35.10
2017-08-18T13:35:19.001Z,35.10
2017-08-18T13:37:46.667Z,35.50
2017-08-18T13:40:14.361Z,34.70
2017-08-18T13:42:43.182Z,35.10
2017-08-18T13:45:10.839Z,35.10
2017-08-18T13:47:38.494Z,34.80
2017-08-18T13:52:54.785Z,36.40
2017-08-18T13:55:33.113Z,35.60
2017-08-18T13:58:01.886Z,36.20
2017-08-18T14:00:29.550Z,36.30
2017-08-18T14:02:57.974Z,36.40
2017-08-18T14:05:26.031Z,36.40
2017-08-18T14:07:53.740Z,36.10
2017-08-18T14:10:21.367Z,36.10
2017-08-18T14:12:49.535Z,36.90
2017-08-18T14:15:17.350Z,37.20
2017-08-18T14:17:45.024Z,37.20
2017-08-18T14:20:13.079Z,38.30
2017-08-18T14:22:40.753Z,38.70
2017-08-18T14:25:14.399Z,37.80
2017-08-18T14:27:45.956Z,36.80
2017-08-18T14:30:13.651Z,37.60
2017-08-18T14:32:41.652Z,37.00
2017-08-18T14:35:10.093Z,37.50
2017-08-18T14:37:37.742Z,37.40
2017-08-18T14:40:05.832Z,38.30
2017-08-18T14:42:33.482Z,37.30
2017-08-18T14:45:01.182Z,38.30
2017-08-18T14:47:29.634Z,38.20
2017-08-18T14:49:57.318Z,36.60
2017-08-18T14:52:24.966Z,37.80
2017-08-18T14:54:52.961Z,37.70
2017-08-18T14:57:21.448Z,38.50
2017-08-18T14:59:49.947Z,37.10
2017-08-18T15:02:17.697Z,37.10
2017-08-18T15:04:46.139Z,36.20
2017-08-18T15:07:13.804Z,36.10
2017-08-18T15:09:41.460Z,37.20
2017-08-18T15:12:10.709Z,37.80
2017-08-18T15:14:39.161Z,37.20
2017-08-18T15:17:07.163Z,37.20
2017-08-18T15:19:34.833Z,37.70
2017-08-18T15:22:02.487Z,38.40
2017-08-18T15:24:30.145Z,38.80
2017-08-18T15:26:58.619Z,37.90
2017-08-18T15:29:27.046Z,37.90
2017-08-18T15:31:54.678Z,37.90
2017-08-18T15:34:22.361Z,37.30
2017-08-18T15:36:50.013Z,37.50
2017-08-18T15:39:17.679Z,38.40
2017-08-18T15:41:45.411Z,38.90
2017-08-18T15:44:14.228Z,38.20
2017-08-18T15:46:41.868Z,38.20
2017-08-18T15:49:09.523Z,38.40
2017-08-18T15:51:37.964Z,38.70
2017-08-18T15:54:05.632Z,38.70
2017-08-18T15:56:33.292Z,38.70
2017-08-18T15:59:00.947Z,38.60
2017-08-18T16:01:28.620Z,38.70
2017-08-18T16:03:56.267Z,38.90
2017-08-18T16:06:23.968Z,39.10
2017-08-18T16:08:52.374Z,39.00
2017-08-18T16:11:20.343Z,39.00
2017-08-18T16:13:47.986Z,39.40
2017-08-18T16:16:15.650Z,39.50
2017-08-18T16:18:44.078Z,40.60
2017-08-18T16:21:11.734Z,40.50
2017-08-18T16:23:39.783Z,40.90
2017-08-18T16:26:07.440Z,41.40
2017-08-18T16:28:35.091Z,41.30
2017-08-18T16:31:03.157Z,41.60
2017-08-18T16:33:30.908Z,41.60
2017-08-18T16:35:59.318Z,42.40
2017-08-18T16:38:27.373Z,42.40
2017-08-18T16:40:55.030Z,42.30
2017-08-18T16:43:23.695Z,42.20
2017-08-18T16:45:53.676Z,42.20
2017-08-18T16:48:21.355Z,42.20
2017-08-18T16:50:49.011Z,42.50
2017-08-18T16:53:17.025Z,42.50
2017-08-18T16:55:44.686Z,42.60
2017-08-18T16:58:13.092Z,42.60
2017-08-18T17:00:41.154Z,42.60
2017-08-18T17:03:08.816Z,42.80
2017-08-18T17:05:36.471Z,43.30
2017-08-18T17:08:04.452Z,43.30
2017-08-18T17:10:32.084Z,43.60
2017-08-18T17:13:00.491Z,44.20
2017-08-18T17:15:28.572Z,43.60
2017-08-18T17:17:56.314Z,43.90
2017-08-18T17:20:23.953Z,43.80
2017-08-18T17:22:54.261Z,43.50
2017-08-18T17:25:21.915Z,43.50
2017-08-18T17:27:49.564Z,43.70
2017-08-18T17:30:17.601Z,43.80
2017-08-18T17:32:45.242Z,44.20
2017-08-18T17:35:13.648Z,44.70
2017-08-18T17:37:41.733Z,44.10
2017-08-18T17:40:09.386Z,44.50
2017-08-18T17:42:37.044Z,45.10
2017-08-18T17:45:05.094Z,46.10
2017-08-18T17:47:33.523Z,47.00
2017-08-18T17:50:01.191Z,47.00
2017-08-18T17:52:29.220Z,46.70
2017-08-18T17:54:56.873Z,48.20
2017-08-18T17:57:24.524Z,50.30
2017-08-18T17:59:53.288Z,56.90
2017-08-18T18:02:20.943Z,56.90
2017-08-18T18:04:48.597Z,63.70
2017-08-18T18:07:16.297Z,68.10
2017-08-18T18:09:44.752Z,68.50
2017-08-18T18:12:12.441Z,68.50
2017-08-18T18:14:40.887Z,65.00
2017-08-18T18:17:08.548Z,64.90
2017-08-18T18:19:36.206Z,65.00
2017-08-18T18:22:04.355Z,66.80
2017-08-18T18:24:32.035Z,68.00
2017-08-18T18:26:59.675Z,68.50
2017-08-18T18:29:27.341Z,67.40
2017-08-18T18:31:54.984Z,65.00
2017-08-18T18:34:22.649Z,65.20
2017-08-18T18:36:50.327Z,64.00
2017-08-18T18:39:18.007Z,64.00
2017-08-18T18:41:45.655Z,63.60
2017-08-18T18:44:13.699Z,64.00
2017-08-18T18:46:41.420Z,64.20
2017-08-18T18:49:09.090Z,65.30
2017-08-18T18:51:36.791Z,65.30
2017-08-18T18:54:04.446Z,64.60
2017-08-18T18:56:32.883Z,64.80
2017-08-18T18:59:00.558Z,64.60
2017-08-18T19:01:28.219Z,64.20
2017-08-18T19:03:55.863Z,63.40
2017-08-18T19:06:23.550Z,63.30
2017-08-18T19:08:51.192Z,63.10
2017-08-18T19:11:19.218Z,63.10
2017-08-18T19:13:46.885Z,63.00
2017-08-18T19:16:14.592Z,65.40
2017-08-18T19:18:42.387Z,65.50
2017-08-18T19:21:11.095Z,66.60
2017-08-18T19:23:38.754Z,66.50
2017-08-18T19:26:06.460Z,65.50
2017-08-18T19:28:34.478Z,65.00
2017-08-18T19:31:02.151Z,65.40
2017-08-18T19:33:29.795Z,63.70
2017-08-18T19:35:58.339Z,63.20
2017-08-18T19:38:25.981Z,63.20
2017-08-18T19:40:53.663Z,62.20
2017-08-18T19:43:21.320Z,63.20
2017-08-18T19:45:48.985Z,63.20
2017-08-18T19:48:16.735Z,62.20
2017-08-18T20:00:29.422Z,62.00
2017-08-18T20:02:57.104Z,63.20
2017-08-18T20:05:24.775Z,63.10
2017-08-18T20:07:52.764Z,62.50
2017-08-18T20:10:21.194Z,61.60
2017-08-18T20:12:48.968Z,61.60
2017-08-18T20:15:16.658Z,61.70
2017-08-18T20:17:44.299Z,62.00
2017-08-18T20:20:14.731Z,62.40
2017-08-18T20:22:42.398Z,62.60
2017-08-18T20:25:10.087Z,61.40
2017-08-18T20:27:38.540Z,61.20
2017-08-18T20:30:06.551Z,61.20
2017-08-18T20:32:34.229Z,61.00
2017-08-18T20:35:01.941Z,60.40
2017-08-18T20:37:29.616Z,59.90
2017-08-18T20:39:58.022Z,60.50
2017-08-18T20:42:25.689Z,60.50
2017-08-18T20:44:53.326Z,60.30
2017-08-18T20:47:22.537Z,61.40
2017-08-18T20:49:50.187Z,61.40
2017-08-18T20:52:18.713Z,62.10
2017-08-18T20:54:46.536Z,62.20
2017-08-18T20:57:14.975Z,60.70
2017-08-18T20:59:42.686Z,60.60
2017-08-18T21:02:10.375Z,59.80
2017-08-18T21:04:38.056Z,60.00
2017-08-18T21:07:05.717Z,61.20
2017-08-18T21:09:33.669Z,60.80
2017-08-18T21:12:01.321Z,61.20
2017-08-18T21:14:29.060Z,62.00
2017-08-18T21:16:56.787Z,64.40
2017-08-18T21:19:24.434Z,65.50
2017-08-18T21:21:52.106Z,65.40
2017-08-18T21:24:19.755Z,65.90
2017-08-18T21:26:47.440Z,66.20
2017-08-18T21:29:15.116Z,67.10
2017-08-18T21:31:43.111Z,67.70
2017-08-18T21:34:10.795Z,67.40
2017-08-18T21:36:38.442Z,66.60
2017-08-18T21:39:06.130Z,67.70
2017-08-18T21:41:33.879Z,67.90
2017-08-18T21:44:01.543Z,66.50
2017-08-18T21:46:29.252Z,65.70
2017-08-18T21:48:57.709Z,66.30
2017-08-18T21:51:25.359Z,66.20
2017-08-18T21:53:53.024Z,67.00
2017-08-18T21:56:20.977Z,66.90
2017-08-18T21:58:49.022Z,67.20
2017-08-18T22:01:17.433Z,67.60
2017-08-18T22:03:45.109Z,67.60
2017-08-18T22:06:12.850Z,66.80
2017-08-18T22:08:40.499Z,66.30
2017-08-18T22:11:08.190Z,66.80
2017-08-18T22:13:35.850Z,66.00
2017-08-18T22:16:03.515Z,66.40
2017-08-18T22:18:31.161Z,66.40
2017-08-18T22:20:58.911Z,66.80
2017-08-18T22:23:26.960Z,67.20
2017-08-18T22:25:55.356Z,68.00
2017-08-18T22:28:23.877Z,66.80
